Potsdam, NY

1:25 PM EST on December 28, 2014 (GMT -0500)
Adirondack Regional | Change Station
CLOSE
Current Station
Airport
Location: Saranac Lake,
Elevation: 1660 ft
Nearby Weather Stations

Elev 1660 ft 44.39 °N, 74.21 °W | Updated 34 minutes ago

Overcast
Overcast
33 °F
Feels Like 26 °F
N
8
Wind Variable Wind from West
Gusts 18 mph

Today
High -- | Low -- °F
--% Chance of Precip.
Yesterday
High -- | Low -- °F
Precip. -- in
7:36 AM 4:26 PM
Waxing Crescent, 50% visible
Pressure 29.83 in
Visibility 10.0 miles
Clouds Scattered Clouds 1400 ft
Overcast 2300 ft
Windchill 26 °F
Dew Point 27 °F
Humidity 78%
Rainfall 0.11 in
Snow Depth Not available.
UV 1 out of 12
Pollen .10 out of 12
Air Quality Not available.
Flu Activity Not available.
METAR KSLK 281751Z AUTO 26007G16KT 230V300 10SM SCT014 OVC023 01/M03 A2979 RMK AO2 SNB29E42 SLP100 P0000 60002 T00061028 10039 20006 53003

More Conditions Fewer Conditions

Pressure 29.83 in
Visibility 10.0 miles
Clouds Scattered Clouds 1400 ft
Overcast 2300 ft
Windchill 26 °F
Dew Point 27 °F
Humidity 78%
Rainfall 0.11 in
Snow Depth Not available.
UV 1 out of 12
Pollen .10 out of 12
Air Quality Not available.
Flu Activity Not available.
METAR KSLK 281751Z AUTO 26007G16KT 230V300 10SM SCT014 OVC023 01/M03 A2979 RMK AO2 SNB29E42 SLP100 P0000 60002 T00061028 10039 20006 53003

More Conditions Fewer Conditions

10-Day Weather Forecast

Almanac

Astronomy

Dec. 28, 2014 Rise Set
Actual Time
Civil Twilight
Nautical Twilight
Astronomical Twilight
Moon
Length of Visible Light
Length of Day
Tomorrow will be .
, % of the Moon is Illuminated

Today's Extremes

State Highs State Lows

Community

WunderPhotos

Upload Photos

1,781,379 photos uploaded!

WunderBlogs® & News

Nearby

Air Quality

  Air Quality AQ Index Pollutant
Not available.

Snow Depth

Station Depth Elevation

Earthquake Activity

City Distance Mag. Time & Date
Minimum magnitude displayed is 2.5.

Coastal Water Temperatures

Place Temperature

Nearby Weather Stations